createdAt,value
2022-12-14T00:00:08.528Z,-5.70
2022-12-14T00:02:37.538Z,-5.70
2022-12-14T00:05:07.046Z,-5.70
2022-12-14T00:07:35.720Z,-5.80
2022-12-14T00:10:04.411Z,-5.70
2022-12-14T00:12:40.416Z,-5.70
2022-12-14T00:15:10.119Z,-5.70
2022-12-14T00:17:38.454Z,-5.80
2022-12-14T00:20:08.071Z,-5.70
2022-12-14T00:22:36.869Z,-5.80
2022-12-14T00:25:05.824Z,-5.70
2022-12-14T00:27:37.441Z,-5.80
2022-12-14T00:30:09.281Z,-5.80
2022-12-14T00:32:38.098Z,-5.90
2022-12-14T00:35:07.239Z,-5.90
2022-12-14T00:37:36.838Z,-5.90
2022-12-14T00:40:07.069Z,-5.90
2022-12-14T00:42:35.811Z,-6.00
2022-12-14T00:45:09.044Z,-6.00
2022-12-14T00:47:40.871Z,-6.00
2022-12-14T00:50:10.473Z,-6.00
2022-12-14T00:52:41.136Z,-6.00
2022-12-14T00:55:10.650Z,-6.00
2022-12-14T00:57:39.282Z,-6.00
2022-12-14T01:00:11.730Z,-6.00
2022-12-14T01:02:40.500Z,-6.00
2022-12-14T01:05:09.694Z,-6.10
2022-12-14T01:07:38.308Z,-6.10
2022-12-14T01:10:07.697Z,-6.20
2022-12-14T01:12:36.265Z,-6.20
2022-12-14T01:15:05.473Z,-6.20
2022-12-14T01:17:36.577Z,-6.20
2022-12-14T01:20:05.819Z,-6.30
2022-12-14T01:22:34.429Z,-6.30
2022-12-14T01:25:03.385Z,-6.30
2022-12-14T01:27:32.054Z,-6.30
2022-12-14T01:30:00.743Z,-6.40
2022-12-14T01:32:29.465Z,-6.40
2022-12-14T01:34:59.279Z,-6.40
2022-12-14T01:37:28.989Z,-6.40
2022-12-14T01:39:57.652Z,-6.40
2022-12-14T01:42:26.113Z,-6.40
2022-12-14T01:44:58.458Z,-6.40
2022-12-14T01:47:38.280Z,-6.40
2022-12-14T01:50:16.390Z,-6.40
2022-12-14T01:52:48.568Z,-6.50
2022-12-14T01:55:26.288Z,-6.50
2022-12-14T01:57:59.747Z,-6.50
2022-12-14T02:00:28.209Z,-6.50
2022-12-14T02:03:01.866Z,-6.50
2022-12-14T02:05:35.589Z,-6.40
2022-12-14T02:08:04.794Z,-6.50
2022-12-14T02:10:34.245Z,-6.50
2022-12-14T02:13:08.227Z,-6.50
2022-12-14T02:15:38.384Z,-6.50
2022-12-14T02:18:09.312Z,-6.50
2022-12-14T02:20:48.849Z,-6.50
2022-12-14T02:23:53.050Z,-6.50
2022-12-14T02:26:53.501Z,-6.50
2022-12-14T02:29:54.088Z,-6.30
2022-12-14T02:32:38.239Z,-6.50
2022-12-14T02:35:16.898Z,-6.50
2022-12-14T02:37:55.220Z,-6.50
2022-12-14T02:40:31.381Z,-6.50
2022-12-14T02:43:10.077Z,-6.60
2022-12-14T02:45:45.443Z,-6.60
2022-12-14T02:48:20.415Z,-5.30
2022-12-14T02:50:59.456Z,-6.60
2022-12-14T02:53:32.611Z,-6.70
2022-12-14T02:56:07.641Z,-6.70
2022-12-14T02:58:40.523Z,-6.70
2022-12-14T03:01:15.404Z,-6.70
2022-12-14T03:03:44.864Z,-6.70
2022-12-14T03:06:26.291Z,-6.70
2022-12-14T03:08:59.717Z,-8.00
2022-12-14T03:11:33.328Z,-6.80
2022-12-14T03:14:08.026Z,-6.60
2022-12-14T03:16:42.707Z,-6.80
2022-12-14T03:19:19.242Z,-6.90
2022-12-14T03:21:51.803Z,-6.90
2022-12-14T03:24:25.566Z,-7.00
2022-12-14T03:27:00.526Z,-7.00
2022-12-14T03:29:31.380Z,-6.70
2022-12-14T03:32:04.640Z,-7.00
2022-12-14T03:34:38.088Z,-7.00
2022-12-14T03:37:12.646Z,-7.00
2022-12-14T03:39:43.645Z,-7.10
2022-12-14T03:42:19.967Z,-7.10
2022-12-14T03:44:52.647Z,-7.10
2022-12-14T03:47:40.746Z,-7.10
2022-12-14T03:50:14.669Z,-7.10
2022-12-14T03:52:50.737Z,-7.10
2022-12-14T03:55:28.280Z,-7.10
2022-12-14T03:58:26.438Z,-7.10
2022-12-14T04:01:03.260Z,-7.10
2022-12-14T04:03:44.213Z,-7.10
2022-12-14T04:06:22.463Z,-7.10
2022-12-14T04:09:00.792Z,-7.00
2022-12-14T04:11:49.242Z,-7.00
2022-12-14T04:14:40.178Z,-7.00
2022-12-14T04:17:31.897Z,-7.00
2022-12-14T04:20:09.173Z,-7.10
2022-12-14T04:22:45.294Z,-7.10
2022-12-14T04:25:35.861Z,-7.20
2022-12-14T04:28:32.434Z,-7.20
2022-12-14T04:31:06.423Z,-7.00
2022-12-14T04:33:50.666Z,-7.30
2022-12-14T04:36:25.777Z,-7.30
2022-12-14T04:39:00.562Z,-7.30
2022-12-14T04:41:33.525Z,-7.30
2022-12-14T04:44:07.216Z,-7.30
2022-12-14T04:46:40.961Z,-7.40
2022-12-14T04:49:19.381Z,-7.40
2022-12-14T04:52:01.954Z,-7.40
2022-12-14T04:54:40.265Z,-7.40
2022-12-14T04:57:19.106Z,-7.40
2022-12-14T04:59:48.920Z,-7.40
2022-12-14T05:02:26.647Z,-7.40
2022-12-14T05:05:04.632Z,-7.40
2022-12-14T05:07:48.958Z,-7.50
2022-12-14T05:10:20.740Z,-7.50
2022-12-14T05:12:57.079Z,-7.50
2022-12-14T05:15:28.623Z,-7.50
2022-12-14T05:17:57.840Z,-7.40
2022-12-14T05:20:26.312Z,-7.40
2022-12-14T05:22:55.919Z,-7.40
2022-12-14T05:25:24.102Z,-7.30
2022-12-14T05:27:52.414Z,-7.30
2022-12-14T05:30:20.843Z,-7.30
2022-12-14T05:32:49.147Z,-7.30
2022-12-14T05:35:17.423Z,-7.30
2022-12-14T05:37:45.790Z,-7.30
2022-12-14T05:40:20.064Z,-7.40
2022-12-14T05:42:55.239Z,-7.30
2022-12-14T05:45:24.014Z,-7.40
2022-12-14T05:47:53.219Z,-7.40
2022-12-14T05:50:21.512Z,-7.40
2022-12-14T05:52:52.016Z,-7.40
2022-12-14T05:55:22.781Z,-7.40
2022-12-14T05:57:50.965Z,-7.40
2022-12-14T06:00:20.780Z,-7.40
2022-12-14T06:02:49.078Z,-7.50
2022-12-14T06:05:17.475Z,-7.40
2022-12-14T06:07:45.594Z,-7.40
2022-12-14T06:10:13.856Z,-7.40
2022-12-14T06:12:43.607Z,-7.30
2022-12-14T06:15:14.096Z,-7.50
2022-12-14T06:17:44.523Z,-7.50
2022-12-14T06:20:13.257Z,-7.50
2022-12-14T06:22:47.381Z,-7.50
2022-12-14T06:25:16.272Z,-7.40
2022-12-14T06:27:45.961Z,-7.50
2022-12-14T06:30:14.616Z,-7.50
2022-12-14T06:32:42.983Z,-7.50
2022-12-14T06:35:11.575Z,-7.50
2022-12-14T06:37:43.702Z,-7.50
2022-12-14T06:40:17.280Z,-7.50
2022-12-14T06:42:48.781Z,-7.50
2022-12-14T06:45:17.268Z,-7.50
2022-12-14T06:47:45.575Z,-7.50
2022-12-14T06:50:19.749Z,-7.40
2022-12-14T06:52:50.593Z,-7.40
2022-12-14T06:55:19.280Z,-6.40
2022-12-14T06:57:51.356Z,-7.50
2022-12-14T07:00:20.322Z,-7.50
2022-12-14T07:02:48.921Z,-7.50
2022-12-14T07:05:17.808Z,-7.50
2022-12-14T07:07:46.084Z,-7.50
2022-12-14T07:10:14.895Z,-7.50
2022-12-14T07:12:43.252Z,-7.50
2022-12-14T07:15:13.242Z,-7.50
2022-12-14T07:17:42.602Z,-7.50
2022-12-14T07:20:11.986Z,-7.50
2022-12-14T07:22:40.749Z,-7.50
2022-12-14T07:25:10.196Z,-7.50
2022-12-14T07:27:38.615Z,-7.50
2022-12-14T07:30:09.287Z,-7.50
2022-12-14T07:32:39.158Z,-7.40
2022-12-14T07:35:11.798Z,-7.40
2022-12-14T07:37:49.336Z,-7.30
2022-12-14T07:40:17.864Z,-7.20
2022-12-14T07:42:49.545Z,-7.30
2022-12-14T07:45:17.914Z,-7.30
2022-12-14T07:47:48.599Z,-7.30
2022-12-14T07:50:22.707Z,-7.30
2022-12-14T07:52:50.831Z,-7.30
2022-12-14T07:55:19.077Z,-7.20
2022-12-14T07:57:48.351Z,-7.20
2022-12-14T08:00:18.336Z,-7.20
2022-12-14T08:02:47.962Z,-7.10
2022-12-14T08:05:16.480Z,-7.10
2022-12-14T08:07:44.915Z,-7.10
2022-12-14T08:10:13.562Z,-7.00
2022-12-14T08:12:42.763Z,-6.50
2022-12-14T08:15:11.123Z,-6.90
2022-12-14T08:17:40.327Z,-6.90
2022-12-14T08:20:12.726Z,-6.80
2022-12-14T08:22:40.964Z,-6.80
2022-12-14T08:25:10.474Z,-6.70
2022-12-14T08:27:41.972Z,-6.70
2022-12-14T08:30:11.644Z,-6.60
2022-12-14T08:32:40.819Z,-6.60
2022-12-14T08:35:10.876Z,-6.50
2022-12-14T08:37:44.179Z,-6.50
2022-12-14T08:40:15.789Z,-6.70
2022-12-14T08:42:43.878Z,-6.30
2022-12-14T08:45:13.044Z,-6.20
2022-12-14T08:47:41.215Z,-6.20
2022-12-14T08:50:11.908Z,-6.10
2022-12-14T08:52:40.437Z,-6.00
2022-12-14T08:57:51.119Z,-5.90
2022-12-14T09:00:19.579Z,-5.90
2022-12-14T09:02:51.580Z,-5.90
2022-12-14T09:05:21.261Z,-5.80
2022-12-14T09:07:49.436Z,-5.80
2022-12-14T09:13:07.182Z,-5.80
2022-12-14T09:15:35.486Z,-5.70
2022-12-14T09:18:03.755Z,-5.70
2022-12-14T09:20:34.361Z,-5.70
2022-12-14T09:23:02.910Z,-5.30
2022-12-14T09:25:32.165Z,-5.60
2022-12-14T09:28:00.501Z,-5.60
2022-12-14T09:30:28.724Z,-5.60
2022-12-14T09:32:57.210Z,-5.60
2022-12-14T09:35:27.305Z,-5.50
2022-12-14T09:37:58.078Z,-5.50
2022-12-14T09:40:32.409Z,-5.40
2022-12-14T09:43:05.412Z,-5.40
2022-12-14T09:45:36.239Z,-5.30
2022-12-14T09:48:12.662Z,-5.20
2022-12-14T09:50:41.496Z,-5.20
2022-12-14T09:53:15.661Z,-5.20
2022-12-14T09:55:46.983Z,-5.20
2022-12-14T09:58:20.139Z,-5.20
2022-12-14T10:00:53.905Z,-5.20
2022-12-14T10:03:51.057Z,-5.10
2022-12-14T10:06:39.505Z,-5.10
2022-12-14T10:12:49.414Z,-4.90
2022-12-14T10:15:25.891Z,-4.40
2022-12-14T10:18:58.211Z,-4.70
2022-12-14T10:21:23.492Z,-4.70
2022-12-14T10:23:56.904Z,-4.60
2022-12-14T10:29:44.994Z,-4.40
2022-12-14T10:32:21.410Z,-4.40
2022-12-14T10:34:50.261Z,-4.40
2022-12-14T10:37:25.687Z,-4.30
2022-12-14T10:40:12.686Z,-4.30
2022-12-14T10:42:53.568Z,-4.20
2022-12-14T10:45:41.481Z,-4.10
2022-12-14T10:48:26.921Z,-4.00
2022-12-14T10:51:01.541Z,-3.90
2022-12-14T10:53:40.187Z,-4.00
2022-12-14T10:56:15.029Z,-4.00
2022-12-14T10:58:43.304Z,-3.90
2022-12-14T11:03:52.145Z,-3.80
2022-12-14T11:06:21.394Z,-3.60
2022-12-14T11:08:51.644Z,-3.80
2022-12-14T11:11:23.812Z,-3.80
2022-12-14T11:13:56.374Z,-3.90
2022-12-14T11:16:36.514Z,-3.80
2022-12-14T11:19:20.859Z,-3.30
2022-12-14T11:21:50.391Z,-3.30
2022-12-14T11:24:24.444Z,-3.50
2022-12-14T11:26:54.852Z,-3.40
2022-12-14T11:29:31.487Z,-3.40
2022-12-14T11:32:00.704Z,-3.30
2022-12-14T11:34:35.976Z,-3.30
2022-12-14T11:37:15.665Z,-3.30
2022-12-14T11:39:44.046Z,-3.10
2022-12-14T11:42:19.240Z,-3.10
2022-12-14T11:44:49.019Z,-3.10
2022-12-14T11:47:19.360Z,-3.00
2022-12-14T11:49:50.820Z,-3.00
2022-12-14T11:52:20.684Z,-3.00
2022-12-14T11:57:29.304Z,-3.00
2022-12-14T12:00:00.103Z,-2.90
2022-12-14T12:02:31.912Z,-2.90
2022-12-14T12:05:06.767Z,-2.90
2022-12-14T12:07:37.529Z,-2.80
2022-12-14T12:10:16.709Z,-2.80
2022-12-14T12:12:54.825Z,-2.80
2022-12-14T12:15:26.265Z,-2.80
2022-12-14T12:17:58.565Z,-2.80
2022-12-14T12:20:34.881Z,-2.90
2022-12-14T12:23:09.001Z,-2.90
2022-12-14T12:25:38.723Z,-2.90
2022-12-14T12:28:16.825Z,-2.90
2022-12-14T12:30:50.851Z,-2.90
2022-12-14T12:36:00.480Z,-2.90
2022-12-14T12:38:53.092Z,-2.90
2022-12-14T12:41:31.826Z,-2.90
2022-12-14T12:44:11.141Z,-3.00
2022-12-14T12:47:15.039Z,-3.10
2022-12-14T12:49:35.146Z,-3.10
2022-12-14T12:52:09.700Z,-3.20
2022-12-14T12:54:43.127Z,-3.20
2022-12-14T12:57:13.884Z,-3.20
2022-12-14T12:59:47.382Z,-3.20
2022-12-14T13:02:26.605Z,-3.20
2022-12-14T13:04:56.302Z,-3.30
2022-12-14T13:07:34.331Z,-3.30
2022-12-14T13:10:13.832Z,-3.30
2022-12-14T13:12:48.791Z,-3.30
2022-12-14T13:15:23.401Z,-3.40
2022-12-14T13:17:56.620Z,-3.40
2022-12-14T13:20:29.962Z,-3.40
2022-12-14T13:23:15.155Z,-3.50
2022-12-14T13:26:07.180Z,-3.60
2022-12-14T13:31:26.382Z,-3.70
2022-12-14T13:34:12.469Z,-3.70
2022-12-14T13:37:16.960Z,-4.30
2022-12-14T13:40:18.446Z,-3.70
2022-12-14T13:42:58.211Z,-3.80
2022-12-14T13:45:31.903Z,-3.80
2022-12-14T13:48:00.553Z,-3.80
2022-12-14T13:50:36.761Z,-3.90
2022-12-14T13:53:09.033Z,-3.90
2022-12-14T13:55:41.010Z,-3.90
2022-12-14T13:58:20.230Z,-3.90
2022-12-14T14:00:55.020Z,-3.90
2022-12-14T14:03:46.728Z,-3.90
2022-12-14T14:06:22.451Z,-4.00
2022-12-14T14:08:52.681Z,-4.00
2022-12-14T14:11:56.352Z,-3.90
2022-12-14T14:14:39.229Z,-4.00
2022-12-14T14:17:14.944Z,-4.00
2022-12-14T14:19:43.591Z,-4.10
2022-12-14T14:22:25.302Z,-3.90
2022-12-14T14:27:37.631Z,-4.10
2022-12-14T14:30:26.645Z,-4.00
2022-12-14T14:33:19.902Z,-4.10
2022-12-14T14:35:49.875Z,-4.20
2022-12-14T14:38:27.986Z,-4.20
2022-12-14T14:41:16.583Z,-4.20
2022-12-14T14:43:54.195Z,-4.30
2022-12-14T14:46:33.202Z,-4.30
2022-12-14T14:49:02.075Z,-4.30
2022-12-14T14:51:33.923Z,-4.40
2022-12-14T15:00:53.837Z,-4.40
2022-12-14T15:03:27.841Z,-4.40
2022-12-14T15:05:56.618Z,-4.50
2022-12-14T15:08:34.949Z,-4.50
2022-12-14T15:11:08.980Z,-4.50
2022-12-14T15:13:46.521Z,-4.60
2022-12-14T15:16:30.539Z,-4.60
2022-12-14T15:19:34.015Z,-4.60
2022-12-14T15:22:06.089Z,-4.70
2022-12-14T15:24:40.817Z,-4.70
2022-12-14T15:27:19.526Z,-4.80
2022-12-14T15:29:49.344Z,-4.90
2022-12-14T15:35:17.121Z,-4.90
2022-12-14T15:37:54.711Z,-4.90
2022-12-14T15:40:28.461Z,-4.90
2022-12-14T15:42:59.812Z,-4.80
2022-12-14T15:45:30.361Z,-4.70
2022-12-14T15:48:14.135Z,-4.80
2022-12-14T15:50:46.555Z,-4.80
2022-12-14T15:53:20.114Z,-4.80
2022-12-14T15:56:00.235Z,-3.70
2022-12-14T15:58:33.476Z,-4.80
2022-12-14T16:01:11.716Z,-4.80
2022-12-14T16:03:43.612Z,-4.80
2022-12-14T16:06:14.543Z,-4.90
2022-12-14T16:09:01.420Z,-4.90
2022-12-14T16:11:37.041Z,-4.80
2022-12-14T16:14:18.947Z,-4.90
2022-12-14T16:16:48.174Z,-4.90
2022-12-14T16:19:27.713Z,-4.90
2022-12-14T16:22:19.673Z,-4.90
2022-12-14T16:25:16.829Z,-4.90
2022-12-14T16:27:50.035Z,-4.90
2022-12-14T16:30:23.022Z,-4.90
2022-12-14T16:32:54.346Z,-5.00
2022-12-14T16:35:25.836Z,-5.00
2022-12-14T16:37:56.715Z,-5.00
2022-12-14T16:40:35.731Z,-5.10
2022-12-14T16:43:05.493Z,-5.10
2022-12-14T16:46:10.245Z,-5.20
2022-12-14T16:48:42.150Z,-5.30
2022-12-14T16:51:44.813Z,-5.30
2022-12-14T16:54:28.224Z,-5.30
2022-12-14T16:57:02.753Z,-5.30
2022-12-14T16:59:43.208Z,-5.30
2022-12-14T17:02:31.862Z,-5.30
2022-12-14T17:05:03.386Z,-5.20
2022-12-14T17:07:33.190Z,-5.30
2022-12-14T17:10:04.043Z,-5.30
2022-12-14T17:12:32.855Z,-5.40
2022-12-14T17:15:01.358Z,-5.40
2022-12-14T17:17:33.979Z,-5.50
2022-12-14T17:20:02.798Z,-5.50
2022-12-14T17:22:34.146Z,-5.50
2022-12-14T17:25:08.234Z,-5.40
2022-12-14T17:27:36.789Z,-5.50
2022-12-14T17:30:05.875Z,-5.40
2022-12-14T17:32:34.455Z,-5.50
2022-12-14T17:35:03.858Z,-5.50
2022-12-14T17:37:36.534Z,-5.50
2022-12-14T17:40:08.204Z,-5.50
2022-12-14T17:42:39.310Z,-5.50
2022-12-14T17:45:18.361Z,-5.60
2022-12-14T17:47:46.729Z,-5.70
2022-12-14T17:50:16.277Z,-5.60
2022-12-14T17:52:44.775Z,-5.60
2022-12-14T17:55:20.342Z,-5.60
2022-12-14T17:57:49.040Z,-5.60
2022-12-14T18:00:35.942Z,-5.20
2022-12-14T18:03:05.713Z,-5.70
2022-12-14T18:05:34.573Z,-5.70
2022-12-14T18:08:03.384Z,-5.70
2022-12-14T18:10:33.455Z,-5.80
2022-12-14T18:13:02.861Z,-5.80
2022-12-14T18:15:36.588Z,-5.80
2022-12-14T18:18:06.229Z,-5.80
2022-12-14T18:20:34.560Z,-5.80
2022-12-14T18:23:03.082Z,-5.90
2022-12-14T18:25:35.169Z,-5.90
2022-12-14T18:28:05.517Z,-5.90
2022-12-14T18:30:40.576Z,-6.00
2022-12-14T18:33:14.617Z,-6.00
2022-12-14T18:35:44.170Z,-6.00
2022-12-14T18:38:12.880Z,-6.00
2022-12-14T18:40:49.485Z,-6.10
2022-12-14T18:43:21.789Z,-6.10
2022-12-14T18:45:50.237Z,-6.10
2022-12-14T18:48:19.509Z,-6.10
2022-12-14T18:50:49.949Z,-6.10
2022-12-14T18:53:20.630Z,-6.30
2022-12-14T18:55:50.807Z,-6.10
2022-12-14T18:58:21.314Z,-6.10
2022-12-14T19:03:33.715Z,-6.20
2022-12-14T19:06:42.172Z,-6.20
2022-12-14T19:09:01.438Z,-6.80
2022-12-14T19:11:34.408Z,-6.30
2022-12-14T19:14:03.114Z,-6.30
2022-12-14T19:16:32.004Z,-6.30
2022-12-14T19:19:00.868Z,-6.40
2022-12-14T19:21:31.635Z,-6.40
2022-12-14T19:24:00.474Z,-6.40
2022-12-14T19:26:30.840Z,-6.40
2022-12-14T19:28:59.245Z,-6.50
2022-12-14T19:31:27.751Z,-6.40
2022-12-14T19:33:56.365Z,-6.50
2022-12-14T19:36:27.317Z,-6.40
2022-12-14T19:38:55.720Z,-6.50
2022-12-14T19:41:24.229Z,-6.50
2022-12-14T19:43:56.828Z,-6.60
2022-12-14T19:46:25.413Z,-6.60
2022-12-14T19:48:53.771Z,-6.60
2022-12-14T19:51:22.914Z,-6.60
2022-12-14T19:53:52.901Z,-7.30
2022-12-14T19:56:21.411Z,-6.60
2022-12-14T19:58:50.089Z,-6.60
2022-12-14T20:01:20.479Z,-6.60
2022-12-14T20:03:50.841Z,-6.50
2022-12-14T20:06:19.360Z,-6.50
2022-12-14T20:08:58.328Z,-6.60
2022-12-14T20:11:26.681Z,-6.50
2022-12-14T20:13:59.943Z,-6.60
2022-12-14T20:19:23.492Z,-6.60
2022-12-14T20:21:51.769Z,-6.60
2022-12-14T20:24:20.300Z,-6.50
2022-12-14T20:26:49.371Z,-6.60
2022-12-14T20:29:17.686Z,-6.60
2022-12-14T20:31:46.194Z,-6.60
2022-12-14T20:34:14.692Z,-6.60
2022-12-14T20:36:44.404Z,-6.70
2022-12-14T20:39:12.657Z,-6.70
2022-12-14T20:41:41.317Z,-6.70
2022-12-14T20:44:12.000Z,-6.80
2022-12-14T20:46:42.255Z,-6.70
2022-12-14T20:49:19.251Z,-6.80
2022-12-14T20:51:49.473Z,-6.80
2022-12-14T20:54:19.628Z,-6.80
2022-12-14T20:56:49.419Z,-6.40
2022-12-14T20:59:18.696Z,-6.70
2022-12-14T21:01:53.569Z,-6.70
2022-12-14T21:04:23.760Z,-6.70
2022-12-14T21:06:53.659Z,-6.70
2022-12-14T21:09:21.945Z,-6.70
2022-12-14T21:12:08.610Z,-6.70
2022-12-14T21:14:40.624Z,-6.70
2022-12-14T21:17:09.711Z,-6.70
2022-12-14T21:19:38.924Z,-6.80
2022-12-14T21:22:14.351Z,-6.80
2022-12-14T21:27:35.813Z,-7.00
2022-12-14T21:30:04.284Z,-6.80
2022-12-14T21:32:36.033Z,-6.70
2022-12-14T21:35:04.624Z,-6.80
2022-12-14T21:37:34.471Z,-6.80
2022-12-14T21:40:03.883Z,-6.80
2022-12-14T21:42:31.230Z,-6.80
2022-12-14T21:45:00.851Z,-6.80
2022-12-14T21:47:30.558Z,-6.80
2022-12-14T21:49:59.119Z,-6.80
2022-12-14T21:52:29.627Z,-6.80
2022-12-14T21:54:59.955Z,-6.80
2022-12-14T21:57:50.250Z,-6.80
2022-12-14T22:00:19.826Z,-6.80
2022-12-14T22:02:48.276Z,-6.80
2022-12-14T22:05:16.904Z,-6.80
2022-12-14T22:07:45.215Z,-6.90
2022-12-14T22:10:16.723Z,-6.60
2022-12-14T22:12:48.440Z,-6.90
2022-12-14T22:15:16.849Z,-7.10
2022-12-14T22:17:46.071Z,-6.20
2022-12-14T22:20:14.701Z,-6.90
2022-12-14T22:22:44.896Z,-6.90
2022-12-14T22:25:15.513Z,-7.00
2022-12-14T22:27:44.532Z,-7.00
2022-12-14T22:30:18.442Z,-7.00
2022-12-14T22:32:47.922Z,-7.00
2022-12-14T22:35:16.264Z,-7.00
2022-12-14T22:37:45.568Z,-7.10
2022-12-14T22:40:21.112Z,-7.10
2022-12-14T22:42:49.251Z,-7.10
2022-12-14T22:45:17.567Z,-7.10
2022-12-14T22:47:45.913Z,-7.10
2022-12-14T22:50:14.373Z,-7.20
2022-12-14T22:52:42.724Z,-7.20
2022-12-14T22:55:12.073Z,-7.00
2022-12-14T22:57:46.163Z,-7.20
2022-12-14T23:00:17.077Z,-7.20
2022-12-14T23:02:48.085Z,-7.20
2022-12-14T23:05:17.333Z,-7.30
2022-12-14T23:10:39.050Z,-7.30
2022-12-14T23:13:27.377Z,-7.30
2022-12-14T23:16:13.057Z,-7.30
2022-12-14T23:18:58.834Z,-7.30
2022-12-14T23:21:44.230Z,-7.30
2022-12-14T23:24:29.911Z,-7.30
2022-12-14T23:27:15.068Z,-7.30
2022-12-14T23:30:02.133Z,-7.30
2022-12-14T23:32:47.676Z,-7.30
2022-12-14T23:35:36.278Z,-7.30
2022-12-14T23:38:23.545Z,-7.20
2022-12-14T23:41:09.000Z,-7.30
2022-12-14T23:43:54.640Z,-7.40
2022-12-14T23:46:41.841Z,-7.40
2022-12-14T23:49:29.256Z,-7.40
2022-12-14T23:52:14.673Z,-7.40
2022-12-14T23:55:01.504Z,-7.50
2022-12-14T23:57:47.184Z,-7.50
